• Join FlightAware (Why Join?)
  • Login
  • US Flag 
12:58AM EDT


 

Airport Tracker/Info


-or-


 

Live Flight TrackerFlight Track Log ✈ UAL5832 ✈ 22-Apr-2013 ✈ KORD - KBNA

Flight Track Log - Related Links

Times and Time Zones

All times are in EDT time to prevent confusion due to time zone crossing. See the UAL5832 flight status page for this flight to view local times or setup timezone preferences in your user account.

Time Position Orientation Groundspeed Altitude Reporting Facility
EDT Latitude Longitude Course Direction KTS MPH feet Rate Location/Type
08:03PM 41.9333 -87.9167 180° South 154 177 2,600  Level Chicago TRACON
08:04PM 41.8833 -87.9167 180° South 191 220 4,400 1,860 Climbing Chicago TRACON
08:05PM 41.8106 -87.9100 176° South 225 259 6,800 2,040 Climbing Chicago Center
08:06PM 41.7431 -87.9031 176° South 244 281 9,000 1,980 Climbing Chicago Center
08:07PM 41.6703 -87.8983 177° South 262 302 10,900 1,560 Climbing Chicago Center
08:08PM 41.5911 -87.8914 176° South 282 325 12,300 960 Climbing Chicago Center
08:10PM 41.4997 -87.8853 177° South 324 373 13,000 780 Climbing Chicago Center
08:11PM 41.4006 -87.8789 177° South 349 402 14,000 1,200 Climbing Chicago Center
08:12PM 41.3006 -87.8894 185° South 355 409 15,500 1,500 Climbing Chicago Center
08:13PM 41.1806 -87.8911 181° South 359 413 17,100 1,320 Climbing Chicago Center
08:14PM 41.0803 -87.8881 179° South 361 415 18,300 1,080 Climbing Chicago Center
08:15PM 40.9800 -87.8861 179° South 361 415 19,400 1,020 Climbing Chicago Center
08:16PM 40.8769 -87.8825 178° South 370 426 20,400 1,020 Climbing Chicago Center
08:17PM 40.7703 -87.8786 178° South 383 441 21,500 1,020 Climbing Chicago Center
08:18PM 40.6639 -87.8761 179° South 384 442 22,600 1,080 Climbing Chicago Center
08:19PM 40.5589 -87.8717 178° South 382 440 23,800 1,260 Climbing Chicago Center
08:20PM 40.4311 -87.8678 179° South 383 441 25,200 1,140 Climbing Chicago Center
08:21PM 40.3642 -87.8650 178° South 382 440 25,800 900 Climbing Indianapolis Center
08:22PM 40.2556 -87.8533 175° South 387 445 26,800 960 Climbing Indianapolis Center
08:23PM 40.1464 -87.8294 171° South 393 452 27,800 960 Climbing Indianapolis Center
08:24PM 40.0394 -87.8017 169° South 392 451 28,800 960 Climbing Indianapolis Center
08:25PM 39.9306 -87.7797 171° South 393 452 29,800 1,140 Climbing Indianapolis Center
08:26PM 39.7983 -87.7514 171° South 397 457 31,200 1,200 Climbing Indianapolis Center
08:27PM 39.6881 -87.7267 170° South 399 459 32,300 840 Climbing Indianapolis Center
08:28PM 39.5764 -87.7036 171° South 402 463 33,000 300 Climbing Indianapolis Center
08:29PM 39.4575 -87.6789 171° South 423 487 33,000  Level Indianapolis Center
08:30PM 39.3300 -87.6528 171° South 455 524 33,000  Level Indianapolis Center
08:31PM 39.2011 -87.6281 172° South 466 536 33,000  Level Indianapolis Center
08:32PM 39.0728 -87.6019 171° South 466 536 33,000  Level Indianapolis Center
08:33PM 38.9483 -87.5758 171° South 454 522 33,000  Level Indianapolis Center
08:34PM 38.8250 -87.5503 171° South 448 516 33,000 -120 Level Indianapolis Center
08:35PM 38.7014 -87.5244 171° South 451 519 32,800 -660 Descending Indianapolis Center
08:36PM 38.5547 -87.4947 171° South 446 513 31,700 -1,080 Descending Indianapolis Center
08:37PM 38.4317 -87.4697 171° South 446 513 30,700 -960 Descending Indianapolis Center
08:38PM 38.3078 -87.4453 171° South 452 520 29,800 -900 Descending Indianapolis Center
08:39PM 38.1828 -87.4194 171° South 459 528 28,900 -960 Descending Indianapolis Center
08:40PM 38.0586 -87.3956 171° South 455 524 27,900 -960 Descending Indianapolis Center
08:41PM 37.9325 -87.3692 171° South 458 527 27,000 -900 Descending Indianapolis Center
08:42PM 37.8086 -87.3447 171° South 454 522 26,100 -1,020 Descending Indianapolis Center
08:43PM 37.6683 -87.3192 172° South 454 522 25,000 -1,140 Descending Indianapolis Center
08:43PM 37.6067 -87.3075 171° South 455 524 24,500 -1,140 Descending Memphis Center
08:44PM 37.4833 -87.2836 171° South 450 518 23,400 -1,200 Descending Memphis Center
08:45PM 37.3639 -87.2594 171° South 444 511 22,100 -1,140 Descending Memphis Center
08:46PM 37.2592 -87.2272 166° South 444 511 21,200 -1,020 Descending Memphis Center
08:47PM 37.1814 -87.2094 170° South 434 499 20,600 -900 Descending Memphis Center
08:47PM 37.1436 -87.1925 160° South 432 497 20,300 -1,020 Descending Memphis Center
08:48PM 37.0808 -87.1794 171° South 429 494 19,700 -1,020 Descending Memphis Center
08:48PM 37.0303 -87.1633 166° South 425 489 19,300 -1,380 Descending Memphis Center
08:49PM 36.9189 -87.1289 166° South 414 476 17,600 -2,100 Descending Memphis Center
08:50PM 36.8139 -87.0942 165° South 407 468 15,200 -2,160 Descending Memphis Center
08:51PM 36.7167 -87.0386 155° Southeast 389 448 13,300 -1,980 Descending Memphis Center
08:52PM 36.6275 -86.9828 153° Southeast 369 425 11,300 -1,680 Descending Memphis Center
08:53PM 36.5489 -86.9242 149° Southeast 332 382 10,000 -1,500 Descending Memphis Center
08:54PM 36.4869 -86.8725 146° Southeast 292 336 8,300 -1,500 Descending Memphis Center
08:55PM 36.4250 -86.8236 148° Southeast 273 314 7,100 -1,320 Descending Memphis Center
08:56PM 36.3697 -86.7797 147° Southeast 256 295 5,700 -1,380 Descending Memphis Center
08:57PM 36.3183 -86.7406 148° Southeast 251 289 4,400 -1,260 Descending Memphis Center
08:58PM 36.2672 -86.7017 148° Southeast 234 269 3,200 -1,140 Descending Memphis Center
08:59PM 36.2247 -86.6728 151° Southeast 203 234 2,200 -900 Descending Memphis Center
09:00PM 36.1867 -86.6592 164° South 158 182 1,500 -660 Descending Memphis Center
09:01PM 36.1517 -86.6736 198° South 131 151 900 -420 Descending Memphis Center
09:02PM 36.1122 -86.6778 185° South 131 151 700 -240 Descending Memphis Center
09:04PM 36.1167 -86.6667 180° South  Level FlightAware Approximate
09:11PM 36.1245 -86.6782 180° South  Level Estimated
09:12PM 36.1245 -86.6782 180° South  Level Estimated
09:13PM 36.1245 -86.6782 180° South  Level Estimated
09:14PM 36.1245 -86.6782 180° South  Level Estimated
09:15PM 36.1245 -86.6782 180° South  Level Estimated
09:16PM 36.1245 -86.6782 180° South  Level Estimated
09:17PM 36.1245 -86.6782 180° South  Level Estimated
09:18PM 36.1245 -86.6782 180° South  Level Estimated